Sedov — UELO — position and weather

sailwx.info

Track history (hours):
 
Tides and Currents Weather Stations Pressure Air Temp Water Temp Dewpoint Dewpoint Depression Visibility Wind Speed Wind Dir Waves Ship Positions

Sedov (Russia)

Last reported at 2016-Sep-26 00:07 UTC. Time now 2016-Sep-26 07:06 UTC.
Position N 54°40' E 020°09'.

Length 118 m; draft 6.1 m.

Type: Sailing vessel. MMSI: 273510000.

Date/timePositionNaut miles runAvg speedWind from/ knotsBaromVisibWave heightAir tempDewpointWater temp
2016-Sep-26 00:07N 54°40' E 020°09'  
2016-Sep-17 22:33N 54°39' E 019°47'0 0.0
2016-Sep-17 21:33N 54°39' E 019°47'0 0.0
2016-Sep-17 20:27N 54°39' E 019°47'0 0.0
2016-Sep-17 19:13N 54°39' E 019°47'25 4.5
2016-Sep-17 13:33N 54°51' E 019°09'5 5.1
2016-Sep-17 12:34N 54°53' E 019°00'10 5.0
2016-Sep-17 10:34N 54°56' E 018°44'5 4.5
2016-Sep-17 09:34N 54°57' E 018°36'4 4.5
2016-Sep-17 08:33N 54°59' E 018°29'13 4.4
2016-Sep-17 05:30N 54°58' E 018°05'5 5.2
2016-Sep-17 04:32N 54°57' E 017°57'25 5.8
2016-Sep-17 00:13N 54°51' E 017°15'64 4.2
2016-Sep-16 09:08N 54°41' E 015°26'9 5.5
2016-Sep-16 07:32N 54°39' E 015°11'24 6.0
2016-Sep-16 03:33N 54°36' E 014°30'6 5.7
2016-Sep-16 02:33N 54°36' E 014°20'11 5.6
2016-Sep-16 00:33N 54°39' E 014°02'  
Track history (hours):
 
Tides and Currents Weather Stations Pressure Air Temp Water Temp Dewpoint Dewpoint Depression Visibility Wind Speed Wind Dir Waves Ship Positions

Sedov (Russia)

Last reported at 2016-Sep-26 00:07 UTC. Time now 2016-Sep-26 07:06 UTC.
Position N 54°40' E 020°09'.

Length 118 m; draft 6.1 m.

Type: Sailing vessel. MMSI: 273510000.

Date/timePositionNaut miles runAvg speedWind from/ knotsBaromVisibWave heightAir tempDewpointWater temp
2016-Sep-26 00:07N 54°40' E 020°09'  
2016-Sep-17 22:33N 54°39' E 019°47'0 0.0
2016-Sep-17 21:33N 54°39' E 019°47'0 0.0
2016-Sep-17 20:27N 54°39' E 019°47'0 0.0
2016-Sep-17 19:13N 54°39' E 019°47'25 4.5
2016-Sep-17 13:33N 54°51' E 019°09'5 5.1
2016-Sep-17 12:34N 54°53' E 019°00'10 5.0
2016-Sep-17 10:34N 54°56' E 018°44'5 4.5
2016-Sep-17 09:34N 54°57' E 018°36'4 4.5
2016-Sep-17 08:33N 54°59' E 018°29'13 4.4
2016-Sep-17 05:30N 54°58' E 018°05'5 5.2
2016-Sep-17 04:32N 54°57' E 017°57'25 5.8
2016-Sep-17 00:13N 54°51' E 017°15'64 4.2
2016-Sep-16 09:08N 54°41' E 015°26'9 5.5
2016-Sep-16 07:32N 54°39' E 015°11'24 6.0
2016-Sep-16 03:33N 54°36' E 014°30'6 5.7
2016-Sep-16 02:33N 54°36' E 014°20'11 5.6
2016-Sep-16 00:33N 54°39' E 014°02'  

Dump ship's entire track history